LFGJ/DLE METAR and TAF weather

Enter ICAO airport designator
Station Type Date Time Source
LFGJ METAR 2018/12/12 13:00 UTC NOAA

LFGJ 121300Z AUTO 09004KT 040V130 CAVOK 05/M00 Q1020 NOSIG


Station Type Date Time Source
LFGJ Decoded METAR 2018/12/12 13:00 UTC NOAA

Dole Tavaux, France (LFGJ) 47-02-34N 005-26-06E
Dec 12, 2018 - 08:00 AM EST / 2018.12.12 1300 UTC
Wind: from the E (090 degrees) at 5 MPH (4 KT) (direction variable):0
Visibility: greater than 7 mile(s):0
Temperature: 41 F (5 C)
Dew Point: 32 F (0 C)
Relative Humidity: 70%
Pressure (altimeter): 30.12 in. Hg (1020 hPa)
ob: LFGJ 121300Z AUTO 09004KT 040V130 CAVOK 05/M00 Q1020 NOSIG
cycle: 13

Station Type Date Time Source
LFGJ TAF 2012/05/01 21:57 UTC NOAA

TAF
AMD TAF
AMD LFGJ 010355Z 3021/0106 18008KT 9999 FEW023 SCT035 BKN050
TEMPO 0102/0103 4000 -SHRA BR FEW012TCU BKN015
BECMG 0103/0104 VRB03KT 0200 FG VV///


Example: see airport list